Time;durP1;ratioP1;P1;durP2;ratioP2;P2;SDS_P1;SDS_P2;PMS_P1;PMS_P2;Temp;Humidity;BMP_temperature;BMP_pressure;BME280_temperature;BME280_humidity;BME280_pressure;Samples;Min_cycle;Max_cycle;Signal;HPM_P1;HPM_P2
2021/07/21 05:00:23;;;;;;;;;;;;;;;19.88;96.50;99420.22;1858373;77;20150;-67
2021/07/21 05:02:57;;;;;;;;;;;;;;;19.89;95.60;99436.90;1829581;78;20104;-72
2021/07/21 05:05:24;;;;;;;;;;;;;;;19.89;94.48;99436.41;1810553;78;21124;-69
2021/07/21 05:07:52;;;;;;;;;;;;;;;19.89;94.76;99436.41;1800406;78;20146;-67
2021/07/21 05:10:19;;;;;;;;;;;;;;;19.91;95.09;99437.07;1816899;77;20132;-67
2021/07/21 05:12:48;;;;;;;;;;;;;;;19.96;94.55;99448.48;1818540;78;20112;-68
2021/07/21 05:15:18;;;;;;;;;;;;;;;20.01;93.74;99446.66;1814782;78;20077;-70
2021/07/21 05:17:49;;;;;;;;;;;;;;;20.07;93.30;99453.95;1853358;76;21104;-74
2021/07/21 05:20:17;;;;;;;;;;;;;;;20.10;92.64;99457.09;1840204;76;20124;-71
2021/07/21 05:22:55;;;;;;;;;;;;;;;20.11;91.53;99463.21;1815157;78;20232;-69
2021/07/21 05:25:24;;;;;;;;;;;;;;;20.10;91.17;99466.34;1818940;78;20086;-67
2021/07/21 05:27:59;;;;;;;;;;;;;;;20.08;91.68;99466.17;1839567;76;20238;-70
2021/07/21 05:30:25;;;;;;;;;;;;;;;20.06;90.41;99466.83;1817689;78;21114;-68
2021/07/21 05:32:57;;;;;;;;;;;;;;;19.99;90.19;99467.46;1820526;76;20112;-74
2021/07/21 05:35:24;;;;;;;;;;;;;;;19.96;91.01;99459.89;1817573;78;20120;-65
2021/07/21 05:37:57;;;;;;;;;;;;;;;20.01;89.84;99465.16;1813502;78;20128;-68
2021/07/21 05:40:25;;;;;;;;;;;;;;;19.99;89.85;99471.43;1816613;78;20155;-66
2021/07/21 05:42:54;;;;;;;;;;;;;;;19.94;89.59;99472.43;1827187;78;21931;-68
2021/07/21 05:45:22;;;;;;;;;;;;;;;19.90;89.26;99468.94;1832672;78;20077;-68
2021/07/21 05:47:49;;;;;;;;;;;;;;;19.87;89.96;99475.37;1832498;76;20156;-69
2021/07/21 05:50:18;;;;;;;;;;;;;;;19.83;90.14;99468.74;1779100;78;20184;-71
2021/07/21 05:52:56;;;;;;;;;;;;;;;19.78;89.44;99479.45;1820150;78;20109;-80
2021/07/21 05:55:24;;;;;;;;;;;;;;;19.70;90.53;99474.13;1763124;78;21863;-65
2021/07/21 05:57:51;;;;;;;;;;;;;;;19.67;91.24;99474.44;1825557;78;20094;-70
2021/07/21 06:00:19;;;;;;;;;;;;;;;19.69;91.26;99474.61;1815517;78;20149;-64
2021/07/21 06:02:47;;;;;;;;;;;;;;;19.75;91.93;99486.37;1803223;79;20102;-69
2021/07/21 06:05:17;;;;;;;;;;;;;;;19.79;90.82;99469.22;1804482;78;20147;-70
2021/07/21 06:07:46;;;;;;;;;;;;;;;19.80;91.10;99467.73;1809762;78;21094;-69
2021/07/21 06:10:31;;;;;;;;;;;;;;;19.81;91.18;99476.49;1787142;79;20136;-69
2021/07/21 06:13:01;;;;;;;;;;;;;;;19.86;91.10;99467.11;1802316;77;20148;-69
2021/07/21 06:15:30;;;;;;;;;;;;;;;19.93;90.31;99466.81;1807156;77;20195;-69
2021/07/21 06:18:01;;;;;;;;;;;;;;;20.00;90.88;99473.58;1812861;79;20102;-76
2021/07/21 06:20:29;;;;;;;;;;;;;;;20.12;90.73;99481.55;1780493;78;21130;-66
2021/07/21 06:22:57;;;;;;;;;;;;;;;20.24;89.70;99467.06;1752602;81;20137;-66
2021/07/21 06:25:28;;;;;;;;;;;;;;;20.38;89.31;99465.64;1742294;81;20091;-67
2021/07/21 06:28:16;;;;;;;;;;;;;;;20.62;89.06;99483.35;1698552;83;20135;-73
2021/07/21 06:30:43;;;;;;;;;;;;;;;20.87;87.41;99468.30;1768747;80;20191;-69
2021/07/21 06:33:16;;;;;;;;;;;;;;;21.03;86.22;99463.02;1756841;79;21511;-74
2021/07/21 06:35:42;;;;;;;;;;;;;;;21.20;85.33;99459.83;1815454;77;20132;-66
2021/07/21 06:38:11;;;;;;;;;;;;;;;21.27;84.24;99459.52;1805671;79;20172;-73
2021/07/21 06:40:40;;;;;;;;;;;;;;;21.30;83.21;99452.56;1778498;79;20420;-65
2021/07/21 06:43:08;;;;;;;;;;;;;;;21.34;82.85;99454.38;1819044;78;20094;-67
2021/07/21 06:45:37;;;;;;;;;;;;;;;21.35;81.22;99448.09;1810793;79;21089;-66
2021/07/21 06:48:09;;;;;;;;;;;;;;;21.33;82.06;99446.94;1808109;77;20141;-69
2021/07/21 06:50:38;;;;;;;;;;;;;;;21.36;81.92;99449.74;1773620;80;20143;-66
2021/07/21 06:53:05;;;;;;;;;;;;;;;21.35;81.71;99460.01;1771399;80;20478;-68
2021/07/21 06:55:51;;;;;;;;;;;;;;;21.27;81.93;99444.46;1773888;79;20861;-65
2021/07/21 06:58:18;;;;;;;;;;;;;;;21.23;81.69;99440.99;1742481;81;20996;-65
2021/07/21 07:00:52;;;;;;;;;;;;;;;21.23;81.81;99441.81;1778903;80;20072;-67
2021/07/21 07:03:42;;;;;;;;;;;;;;;21.28;81.93;99447.94;1772892;79;20418;-71
2021/07/21 07:06:19;;;;;;;;;;;;;;;21.37;80.89;99448.75;1639996;86;20418;-69
2021/07/21 07:09:04;;;;;;;;;;;;;;;21.41;80.12;99453.55;1782841;79;20093;-68
2021/07/21 07:11:55;;;;;;;;;;;;;;;21.39;79.00;99440.14;1769869;80;21110;-67
2021/07/21 07:14:19;;;;;;;;;;;;;;;21.39;78.39;99451.56;1771103;79;20120;-70
2021/07/21 07:16:47;;;;;;;;;;;;;;;21.35;78.19;99447.59;1740367;80;20378;-68
2021/07/21 07:19:16;;;;;;;;;;;;;;;21.39;79.05;99457.36;1763676;80;20589;-69
2021/07/21 07:21:45;;;;;;;;;;;;;;;21.49;77.57;99447.41;1764835;80;20096;-68
2021/07/21 07:24:12;;;;;;;;;;;;;;;21.54;76.75;99460.47;1738187;81;21081;-72
2021/07/21 07:26:38;;;;;;;;;;;;;;;21.64;77.53;99458.92;1767418;80;20153;-73
2021/07/21 07:29:05;;;;;;;;;;;;;;;21.80;77.44;99460.20;1774613;80;20155;-75
2021/07/21 07:31:39;;;;;;;;;;;;;;;21.99;75.74;99464.77;1783624;79;20104;-70
2021/07/21 07:34:13;;;;;;;;;;;;;;;22.11;73.68;99462.06;1787747;80;20175;-76
2021/07/21 07:36:42;;;;;;;;;;;;;;;22.18;73.61;99459.05;1784620;80;20127;-69
2021/07/21 07:39:09;;;;;;;;;;;;;;;22.30;73.36;99469.59;1791909;80;20403;-69
2021/07/21 07:41:36;;;;;;;;;;;;;;;22.42;72.18;99460.22;1772221;79;20123;-74
2021/07/21 07:44:03;;;;;;;;;;;;;;;22.56;72.01;99464.77;1769858;79;20112;-73
2021/07/21 07:46:31;;;;;;;;;;;;;;;22.78;71.93;99467.61;1767047;80;20085;-70
2021/07/21 07:49:11;;;;;;;;;;;;;;;23.01;69.02;99468.42;1787659;78;21488;-72
2021/07/21 07:51:40;;;;;;;;;;;;;;;23.14;68.70;99467.82;1738756;81;20157;-71
2021/07/21 07:54:10;;;;;;;;;;;;;;;23.22;68.49;99473.85;1751969;80;20192;-72
2021/07/21 07:56:36;;;;;;;;;;;;;;;23.26;68.64;99466.34;1748961;80;20146;-72
2021/07/21 07:59:03;;;;;;;;;;;;;;;23.28;68.96;99469.66;1753745;80;20115;-71
2021/07/21 08:01:31;;;;;;;;;;;;;;;23.33;68.96;99467.78;1748452;81;21206;-72
2021/07/21 08:03:58;;;;;;;;;;;;;;;23.42;68.96;99468.85;1739725;81;20160;-72
2021/07/21 08:06:25;;;;;;;;;;;;;;;23.55;69.35;99478.89;1755927;80;20107;-72
2021/07/21 08:08:53;;;;;;;;;;;;;;;23.72;67.41;99476.34;1749339;82;20191;-73
2021/07/21 08:11:20;;;;;;;;;;;;;;;23.79;66.72;99478.59;1739627;81;20152;-72
2021/07/21 08:13:47;;;;;;;;;;;;;;;23.85;66.23;99491.66;1752582;80;20999;-72
2021/07/21 08:16:14;;;;;;;;;;;;;;;23.85;65.52;99492.48;1750265;81;20517;-74
2021/07/21 08:18:41;;;;;;;;;;;;;;;23.76;65.27;99498.08;1774208;80;20428;-75
2021/07/21 08:21:08;;;;;;;;;;;;;;;23.68;66.14;99495.00;1772527;79;20100;-73
2021/07/21 08:23:35;;;;;;;;;;;;;;;23.73;66.67;99500.59;1757435;80;20517;-76
2021/07/21 08:26:02;;;;;;;;;;;;;;;23.82;66.73;99503.48;1765046;80;22603;-73
2021/07/21 08:28:33;;;;;;;;;;;;;;;23.85;66.89;99495.14;1761685;80;20150;-77
2021/07/21 08:31:00;;;;;;;;;;;;;;;23.88;67.18;99505.91;1766212;80;20120;-74
2021/07/21 08:33:28;;;;;;;;;;;;;;;23.98;67.20;99504.31;1760500;80;20128;-76
2021/07/21 08:35:57;;;;;;;;;;;;;;;24.04;67.43;99504.87;1768818;80;20168;-74
2021/07/21 08:38:24;;;;;;;;;;;;;;;24.05;67.38;99505.20;1767160;80;21118;-73
2021/07/21 08:40:54;;;;;;;;;;;;;;;24.07;66.73;99513.31;1776553;80;20139;-71
2021/07/21 08:43:21;;;;;;;;;;;;;;;24.03;65.91;99509.37;1772086;78;20918;-70
2021/07/21 08:45:48;;;;;;;;;;;;;;;24.01;65.54;99518.54;1758658;80;20104;-72
2021/07/21 08:48:15;;;;;;;;;;;;;;;23.96;64.95;99513.80;1783352;79;20096;-73
2021/07/21 08:50:44;;;;;;;;;;;;;;;23.98;65.30;99509.62;1760776;81;21070;-76
2021/07/21 08:53:13;;;;;;;;;;;;;;;24.02;65.68;99506.39;1760422;81;20463;-77
2021/07/21 08:55:40;;;;;;;;;;;;;;;24.14;64.97;99502.25;1753947;81;20093;-77
2021/07/21 08:58:07;;;;;;;;;;;;;;;24.30;64.03;99505.24;1760922;81;20423;-75
2021/07/21 09:00:34;;;;;;;;;;;;;;;24.44;63.19;99502.20;1767422;80;20085;-77
2021/07/21 09:03:02;;;;;;;;;;;;;;;24.59;62.87;99509.64;1781955;79;20996;-78
2021/07/21 09:05:29;;;;;;;;;;;;;;;24.73;62.69;99502.62;1737849;82;20132;-78
2021/07/21 09:07:56;;;;;;;;;;;;;;;24.89;62.86;99503.17;1756177;80;20127;-77
2021/07/21 09:10:23;;;;;;;;;;;;;;;25.13;61.52;99505.98;1758620;80;20143;-75
2021/07/21 09:12:50;;;;;;;;;;;;;;;25.42;60.77;99506.81;1766225;80;20120;-77
2021/07/21 09:15:19;;;;;;;;;;;;;;;25.59;59.63;99506.83;1773075;80;21127;-78
2021/07/21 09:18:05;;;;;;;;;;;;;;;25.82;59.50;99509.23;1784233;80;20127;-77
2021/07/21 09:20:38;;;;;;;;;;;;;;;26.02;58.59;99500.80;1762362;80;20103;-75
2021/07/21 09:23:05;;;;;;;;;;;;;;;26.15;56.93;99501.38;1755466;80;20110;-76
2021/07/21 09:25:34;;;;;;;;;;;;;;;26.27;57.35;99517.66;1766572;80;20116;-78
2021/07/21 09:28:03;;;;;;;;;;;;;;;26.30;55.29;99501.23;1761960;80;21134;-73
2021/07/21 09:30:35;;;;;;;;;;;;;;;26.16;55.64;99507.03;1774150;79;20113;-73
2021/07/21 09:33:07;;;;;;;;;;;;;;;26.09;55.27;99501.66;1767814;79;20407;-74
2021/07/21 09:35:39;;;;;;;;;;;;;;;26.11;56.11;99497.46;1744601;80;20127;-70
2021/07/21 09:38:12;;;;;;;;;;;;;;;26.12;55.24;99500.44;1768328;80;20107;-72
2021/07/21 09:40:43;;;;;;;;;;;;;;;26.05;54.42;99502.25;1763800;80;22123;-72
2021/07/21 09:43:14;;;;;;;;;;;;;;;25.91;53.53;99511.55;1749503;81;20571;-72
2021/07/21 09:45:42;;;;;;;;;;;;;;;25.89;54.66;99504.77;1750254;81;20155;-75
2021/07/21 09:48:09;;;;;;;;;;;;;;;25.90;55.66;99501.91;1744505;81;20147;-78
2021/07/21 09:50:38;;;;;;;;;;;;;;;25.95;56.22;99507.98;1753557;81;20160;-74
2021/07/21 09:53:11;;;;;;;;;;;;;;;26.03;56.24;99502.45;1732874;81;21152;-78
2021/07/21 09:55:40;;;;;;;;;;;;;;;26.09;55.93;99503.00;1758518;80;20189;-76
2021/07/21 09:58:12;;;;;;;;;;;;;;;26.15;54.73;99510.20;1734320;80;20287;-71
2021/07/21 10:00:42;;;;;;;;;;;;;;;26.16;54.48;99505.70;1749115;80;20093;-70
2021/07/21 10:03:20;;;;;;;;;;;;;;;26.22;54.68;99504.91;1722825;82;20113;-71
2021/07/21 10:05:57;;;;;;;;;;;;;;;26.27;54.95;99507.80;1754371;82;20107;-69
2021/07/21 10:08:44;;;;;;;;;;;;;;;26.35;54.65;99504.16;1722803;83;20109;-69
2021/07/21 10:11:22;;;;;;;;;;;;;;;26.29;54.32;99507.60;1748788;82;20560;-70
2021/07/21 10:13:53;;;;;;;;;;;;;;;26.15;54.65;99507.54;1748419;82;20131;-72
2021/07/21 10:16:42;;;;;;;;;;;;;;;25.97;54.79;99510.45;1747880;82;20417;-70
2021/07/21 10:19:25;;;;;;;;;;;;;;;25.76;55.23;99512.69;1748150;82;21116;-70
2021/07/21 10:21:58;;;;;;;;;;;;;;;25.64;54.34;99516.41;1748161;82;20068;-69
2021/07/21 10:24:27;;;;;;;;;;;;;;;25.56;54.02;99516.55;1748183;82;20103;-69
2021/07/21 10:26:54;;;;;;;;;;;;;;;25.45;54.15;99512.58;1747891;82;20154;-69
2021/07/21 10:29:21;;;;;;;;;;;;;;;25.47;55.08;99512.38;1747042;82;20468;-70
2021/07/21 10:31:49;;;;;;;;;;;;;;;25.56;55.15;99513.89;1748293;81;21868;-69
2021/07/21 10:34:16;;;;;;;;;;;;;;;25.63;55.50;99516.56;1753287;80;20258;-71
2021/07/21 10:36:44;;;;;;;;;;;;;;;25.63;54.69;99512.06;1770049;80;20158;-70
2021/07/21 10:39:25;;;;;;;;;;;;;;;25.60;54.67;99508.45;1760712;80;20217;-70
2021/07/21 10:41:51;;;;;;;;;;;;;;;25.51;54.89;99509.64;1761811;80;20122;-71
2021/07/21 10:44:19;;;;;;;;;;;;;;;25.45;54.37;99511.75;1770139;80;22171;-71
2021/07/21 10:46:48;;;;;;;;;;;;;;;25.37;53.70;99514.05;1767849;80;20984;-69
2021/07/21 10:49:49;;;;;;;;;;;;;;;25.33;54.29;99512.79;1763438;80;20082;-70
2021/07/21 10:55:00;;;;;;;;;;;;;;;25.36;52.80;99508.41;1758096;80;20093;-70
2021/07/21 11:00:39;;;;;;;;;;;;;;;25.45;54.28;99511.75;1736203;82;20130;-77
2021/07/21 11:03:22;;;;;;;;;;;;;;;25.48;53.79;99512.19;1743356;80;20161;-78
2021/07/21 11:06:05;;;;;;;;;;;;;;;25.51;53.67;99502.98;1764331;80;20300;-72
2021/07/21 11:08:39;;;;;;;;;;;;;;;25.60;49.89;99520.45;1761639;80;20124;-72
2021/07/21 11:11:21;;;;;;;;;;;;;;;25.58;49.11;99516.67;1724185;80;20143;-73
2021/07/21 11:13:56;;;;;;;;;;;;;;;25.56;49.93;99506.72;1752356;80;20896;-77
2021/07/21 11:16:41;;;;;;;;;;;;;;;25.59;50.06;99513.50;1764604;80;20081;-73
2021/07/21 11:19:24;;;;;;;;;;;;;;;25.63;50.13;99509.39;1694599;80;20147;-78
2021/07/21 11:21:56;;;;;;;;;;;;;;;25.66;50.46;99502.37;1751306;80;20081;-77
2021/07/21 11:24:23;;;;;;;;;;;;;;;25.74;51.00;99501.39;1727011;82;21007;-73
2021/07/21 11:26:51;;;;;;;;;;;;;;;25.82;49.74;99503.91;1767965;80;20163;-73
2021/07/21 11:29:29;;;;;;;;;;;;;;;25.79;49.12;99498.96;1751389;80;20119;-72
2021/07/21 11:31:58;;;;;;;;;;;;;;;25.75;50.25;99500.38;1737285;81;20168;-79
2021/07/21 11:34:38;;;;;;;;;;;;;;;25.80;50.73;99497.44;1747247;81;20428;-74
2021/07/21 11:37:06;;;;;;;;;;;;;;;25.87;50.58;99496.96;1730652;81;22157;-74
2021/07/21 11:39:47;;;;;;;;;;;;;;;25.87;50.51;99498.80;1777792;80;20092;-74
2021/07/21 11:45:13;;;;;;;;;;;;;;;25.94;50.46;99497.51;1752540;80;20434;-74
2021/07/21 11:47:56;;;;;;;;;;;;;;;25.88;50.42;99505.28;1757141;80;20090;-74
2021/07/21 11:50:26;;;;;;;;;;;;;;;25.75;49.83;99497.20;1762750;80;21093;-76
2021/07/21 11:52:56;;;;;;;;;;;;;;;25.66;50.07;99498.37;1778197;80;20413;-73
2021/07/21 11:55:26;;;;;;;;;;;;;;;25.58;51.00;99512.67;1754220;80;20103;-76
2021/07/21 11:57:53;;;;;;;;;;;;;;;25.55;50.47;99498.40;1753019;80;20132;-78
2021/07/21 12:00:21;;;;;;;;;;;;;;;25.52;49.76;99506.78;1775308;80;20125;-74
2021/07/21 12:03:01;;;;;;;;;;;;;;;25.52;49.52;99505.45;1762618;80;21123;-72
2021/07/21 12:05:30;;;;;;;;;;;;;;;25.54;50.12;99499.42;1727968;82;20075;-80
2021/07/21 12:08:06;;;;;;;;;;;;;;;25.59;50.04;99499.63;1725022;82;20172;-77
2021/07/21 12:10:34;;;;;;;;;;;;;;;25.64;49.99;99493.73;1735186;82;20095;-74
2021/07/21 12:13:08;;;;;;;;;;;;;;;25.69;50.16;99495.31;1729079;82;20083;-74
2021/07/21 12:15:38;;;;;;;;;;;;;;;25.75;50.27;99486.53;1725396;82;20141;-73
2021/07/21 12:18:10;;;;;;;;;;;;;;;25.83;49.53;99490.88;1747459;81;20165;-71
2021/07/21 12:20:40;;;;;;;;;;;;;;;25.82;50.39;99490.06;1743208;81;20186;-77
2021/07/21 12:23:08;;;;;;;;;;;;;;;25.84;50.86;99491.20;1742326;81;20406;-76
2021/07/21 12:25:37;;;;;;;;;;;;;;;25.82;51.35;99494.06;1753230;81;20120;-82
2021/07/21 12:28:10;;;;;;;;;;;;;;;25.79;52.00;99491.78;1724979;81;21769;-74
2021/07/21 12:30:37;;;;;;;;;;;;;;;25.78;52.24;99490.65;1714617;83;20122;-75
2021/07/21 12:36:18;;;;;;;;;;;;;;;25.88;50.31;99493.78;1753974;80;20585;-78
2021/07/21 12:39:21;;;;;;;;;;;;;;;25.88;48.06;99488.45;1745591;80;20479;-86
2021/07/21 12:41:52;;;;;;;;;;;;;;;25.86;48.29;99501.98;1704393;80;20158;-81
2021/07/21 12:44:26;;;;;;;;;;;;;;;25.80;49.44;99491.27;1756451;80;20566;-82
2021/07/21 12:46:52;;;;;;;;;;;;;;;25.86;50.07;99498.49;1736721;80;20131;-84
2021/07/21 12:49:18;;;;;;;;;;;;;;;25.95;49.11;99504.49;1674505;82;20099;-76
2021/07/21 12:51:46;;;;;;;;;;;;;;;26.00;48.74;99491.35;1738757;80;20131;-76
2021/07/21 12:54:13;;;;;;;;;;;;;;;26.01;49.21;99495.67;1750482;80;21183;-77
2021/07/21 12:56:45;;;;;;;;;;;;;;;26.07;49.92;99501.03;1731215;81;20098;-74
2021/07/21 12:59:12;;;;;;;;;;;;;;;26.15;49.12;99502.20;1749633;80;20131;-72
2021/07/21 13:01:39;;;;;;;;;;;;;;;26.23;48.70;99494.54;1728113;81;20171;-72
2021/07/21 13:04:14;;;;;;;;;;;;;;;26.27;48.76;99495.79;1780286;79;20114;-75
2021/07/21 13:06:44;;;;;;;;;;;;;;;26.23;48.22;99498.55;1775720;79;20526;-73
2021/07/21 13:09:11;;;;;;;;;;;;;;;26.13;47.55;99500.75;1776502;80;20098;-74
2021/07/21 13:11:40;;;;;;;;;;;;;;;26.02;48.18;99496.80;1804926;78;20384;-74
2021/07/21 13:14:07;;;;;;;;;;;;;;;25.95;48.58;99489.81;1803028;78;20121;-72
2021/07/21 13:16:35;;;;;;;;;;;;;;;25.89;47.44;99510.92;1806806;78;20136;-74
2021/07/21 13:19:06;;;;;;;;;;;;;;;25.76;47.29;99506.84;1799458;78;21183;-75
2021/07/21 13:21:39;;;;;;;;;;;;;;;25.65;47.32;99503.89;1801072;78;20128;-74
2021/07/21 13:24:11;;;;;;;;;;;;;;;25.59;47.87;99497.50;1771681;80;20114;-71
2021/07/21 13:26:39;;;;;;;;;;;;;;;25.58;47.69;99497.19;1788012;80;20112;-73
2021/07/21 13:29:14;;;;;;;;;;;;;;;25.57;47.57;99496.88;1772647;80;20147;-72
2021/07/21 13:31:47;;;;;;;;;;;;;;;25.54;47.97;99498.09;1791055;79;21079;-72
2021/07/21 13:34:21;;;;;;;;;;;;;;;25.48;47.56;99504.70;1748723;81;20074;-73
2021/07/21 13:36:48;;;;;;;;;;;;;;;25.45;48.25;99499.76;1792714;79;20086;-72
2021/07/21 13:39:15;;;;;;;;;;;;;;;25.45;48.07;99503.75;1776387;79;20387;-71
2021/07/21 13:41:55;;;;;;;;;;;;;;;25.44;47.25;99503.44;1777309;80;20096;-72
2021/07/21 13:44:31;;;;;;;;;;;;;;;25.38;46.18;99506.88;1783919;79;21129;-71
2021/07/21 13:47:05;;;;;;;;;;;;;;;25.25;46.34;99513.75;1790658;79;20092;-74
2021/07/21 13:49:40;;;;;;;;;;;;;;;25.14;47.03;99510.30;1752265;80;20118;-72
2021/07/21 13:52:10;;;;;;;;;;;;;;;25.06;47.77;99511.77;1769614;80;20097;-73
2021/07/21 13:54:39;;;;;;;;;;;;;;;25.04;47.09;99512.97;1767393;80;20112;-74
2021/07/21 13:57:14;;;;;;;;;;;;;;;24.99;47.44;99521.53;1758650;80;21150;-73
2021/07/21 13:59:41;;;;;;;;;;;;;;;24.93;46.58;99512.44;1749861;80;20401;-72
